createdAt,value
2022-08-25T00:03:13.759Z,59.19
2022-08-25T00:08:16.783Z,61.63
2022-08-25T00:13:19.823Z,66.50
2022-08-25T00:18:27.442Z,63.09
2022-08-25T00:23:30.520Z,59.76
2022-08-25T00:28:34.032Z,57.52
2022-08-25T00:33:37.045Z,60.10
2022-08-25T00:38:42.139Z,62.96
2022-08-25T00:43:52.156Z,66.24
2022-08-25T00:49:04.834Z,61.79
2022-08-25T00:54:11.843Z,59.03
2022-08-25T00:59:16.670Z,57.71
2022-08-25T01:04:20.590Z,60.15
2022-08-25T01:09:24.436Z,61.89
2022-08-25T01:14:31.653Z,67.29
2022-08-25T01:19:34.719Z,63.72
2022-08-25T01:24:53.538Z,60.54
2022-08-25T01:29:58.057Z,57.43
2022-08-25T01:35:01.135Z,59.18
2022-08-25T01:40:06.770Z,61.02
2022-08-25T01:45:10.711Z,66.87
2022-08-25T01:50:16.246Z,64.33
2022-08-25T01:55:19.699Z,61.19
2022-08-25T02:00:24.631Z,58.42
2022-08-25T02:05:27.685Z,58.92
2022-08-25T02:10:33.832Z,60.94
2022-08-25T02:15:46.713Z,66.77
2022-08-25T02:20:49.777Z,63.63
2022-08-25T02:25:53.234Z,60.70
2022-08-25T02:31:01.156Z,57.79
2022-08-25T02:36:05.871Z,59.14
2022-08-25T02:41:15.930Z,61.55
2022-08-25T02:46:25.282Z,67.35
2022-08-25T02:51:30.436Z,63.98
2022-08-25T02:56:34.075Z,61.01
2022-08-25T03:01:37.184Z,58.42
2022-08-25T03:06:41.026Z,58.57
2022-08-25T03:11:44.105Z,60.67
2022-08-25T03:16:47.318Z,66.51
2022-08-25T03:21:52.609Z,63.46
2022-08-25T03:26:56.214Z,60.51
2022-08-25T03:32:00.452Z,57.69
2022-08-25T03:37:05.943Z,59.45
2022-08-25T03:42:09.071Z,61.79
2022-08-25T03:47:12.841Z,66.92
2022-08-25T03:52:18.402Z,63.38
2022-08-25T03:57:21.448Z,59.36
2022-08-25T04:02:24.627Z,58.00
2022-08-25T04:07:27.718Z,60.85
2022-08-25T04:12:30.682Z,65.62
2022-08-25T04:17:38.624Z,62.30
2022-08-25T04:22:44.886Z,59.13
2022-08-25T04:27:48.567Z,57.53
2022-08-25T04:32:51.546Z,60.51
2022-08-25T04:37:54.550Z,65.00
2022-08-25T04:42:57.754Z,60.18
2022-08-25T04:48:01.597Z,56.10
2022-08-25T04:53:04.784Z,57.57
2022-08-25T04:58:10.102Z,58.65
2022-08-25T05:03:17.811Z,58.81
2022-08-25T05:08:20.854Z,58.70
2022-08-25T05:13:26.407Z,58.00
2022-08-25T05:18:32.503Z,57.41
2022-08-25T05:23:36.436Z,57.44
2022-08-25T05:28:42.176Z,57.95
2022-08-25T05:33:45.196Z,57.05
2022-08-25T05:38:48.763Z,56.92
2022-08-25T05:43:52.071Z,56.24
2022-08-25T05:48:55.344Z,54.73
2022-08-25T05:53:58.343Z,54.59
2022-08-25T05:59:04.039Z,55.48
2022-08-25T06:04:09.559Z,58.00
2022-08-25T06:09:12.901Z,59.98
2022-08-25T06:14:16.029Z,61.55
2022-08-25T06:19:19.399Z,66.73
2022-08-25T06:24:22.810Z,63.06
2022-08-25T06:29:30.279Z,57.08
2022-08-25T06:34:36.819Z,57.88
2022-08-25T06:39:44.942Z,59.30
2022-08-25T06:44:49.388Z,60.91
2022-08-25T06:49:52.678Z,65.94
2022-08-25T06:54:55.740Z,62.26
2022-08-25T06:59:58.712Z,58.41
2022-08-25T07:05:01.727Z,56.73
2022-08-25T07:10:05.885Z,58.78
2022-08-25T07:15:19.770Z,60.41
2022-08-25T07:25:31.643Z,66.58
2022-08-25T07:30:35.212Z,62.51
2022-08-25T07:35:38.775Z,56.77
2022-08-25T07:40:43.536Z,56.21
2022-08-25T07:45:49.666Z,57.11
2022-08-25T07:50:52.775Z,58.62
2022-08-25T07:55:55.851Z,60.04
2022-08-25T08:00:58.873Z,64.07
2022-08-25T08:06:07.099Z,61.06
2022-08-25T08:11:17.427Z,55.87
2022-08-25T08:16:24.202Z,54.66
2022-08-25T08:21:32.349Z,56.31
2022-08-25T08:26:57.826Z,57.14
2022-08-25T08:31:58.596Z,58.31
2022-08-25T08:37:02.518Z,58.69
2022-08-25T08:42:54.944Z,60.22
2022-08-25T08:48:10.415Z,64.30
2022-08-25T08:53:22.982Z,57.02
2022-08-25T08:58:39.954Z,55.40
2022-08-25T09:03:55.391Z,55.30
2022-08-25T09:09:06.652Z,56.76
2022-08-25T09:15:17.525Z,56.75
2022-08-25T09:21:28.137Z,57.01
2022-08-25T09:26:52.758Z,57.43
2022-08-25T09:32:00.549Z,55.79
2022-08-25T09:37:05.147Z,57.07
2022-08-25T09:42:08.322Z,57.67
2022-08-25T09:47:18.624Z,57.34
2022-08-25T09:52:37.586Z,57.49
2022-08-25T09:57:43.371Z,56.82
2022-08-25T10:03:10.234Z,56.20
2022-08-25T10:08:32.984Z,55.27
2022-08-25T10:13:47.230Z,54.87
2022-08-25T10:19:14.578Z,55.00
2022-08-25T10:24:17.906Z,53.19
2022-08-25T10:30:07.856Z,53.24
2022-08-25T10:35:20.637Z,52.00
2022-08-25T10:40:57.963Z,51.38
2022-08-25T10:46:36.895Z,51.11
2022-08-25T10:52:16.897Z,50.22
2022-08-25T10:57:37.644Z,49.92
2022-08-25T11:03:35.588Z,49.44
2022-08-25T11:08:54.725Z,49.67
2022-08-25T11:14:19.366Z,50.23
2022-08-25T11:19:39.453Z,50.39
2022-08-25T11:25:05.839Z,50.43
2022-08-25T11:30:14.229Z,49.52
2022-08-25T11:35:27.492Z,49.05
2022-08-25T11:41:11.614Z,49.03
2022-08-25T11:46:45.718Z,50.56
2022-08-25T11:51:51.380Z,50.87
2022-08-25T11:57:10.848Z,50.14
2022-08-25T12:02:42.544Z,48.38
2022-08-25T12:07:49.073Z,48.07
2022-08-25T12:13:23.343Z,46.23
2022-08-25T12:18:32.431Z,45.91
2022-08-25T12:24:12.078Z,45.83
2022-08-25T12:29:34.906Z,46.37
2022-08-25T12:35:17.381Z,45.37
2022-08-25T12:40:33.834Z,44.47
2022-08-25T12:45:40.822Z,42.93
2022-08-25T12:50:48.305Z,43.70
2022-08-25T12:56:39.045Z,43.64
2022-08-25T13:02:24.131Z,43.57
2022-08-25T13:08:01.337Z,44.91
2022-08-25T13:13:18.112Z,44.30
2022-08-25T13:18:29.935Z,44.74
2022-08-25T13:23:38.067Z,44.68
2022-08-25T13:28:42.923Z,44.44
2022-08-25T13:34:03.578Z,43.85
2022-08-25T13:39:15.898Z,43.41
2022-08-25T13:44:22.658Z,43.59
2022-08-25T13:49:26.813Z,43.01
2022-08-25T13:54:43.280Z,43.09
2022-08-25T13:59:52.467Z,42.53
2022-08-25T14:04:55.550Z,42.62
2022-08-25T14:10:23.051Z,42.58
2022-08-25T14:15:32.190Z,42.80
2022-08-25T14:20:37.962Z,42.03
2022-08-25T14:25:42.382Z,41.51
2022-08-25T14:30:56.942Z,41.79
2022-08-25T14:36:02.977Z,41.07
2022-08-25T14:46:27.888Z,41.21
2022-08-25T14:51:33.421Z,41.08
2022-08-25T14:56:43.013Z,40.93
2022-08-25T15:01:46.554Z,40.33
2022-08-25T15:07:23.677Z,40.27
2022-08-25T15:12:46.640Z,40.27
2022-08-25T15:17:50.750Z,40.19
2022-08-25T15:22:53.782Z,40.35
2022-08-25T15:27:57.973Z,40.30
2022-08-25T15:33:01.126Z,40.12
2022-08-25T15:38:04.185Z,40.14
2022-08-25T15:43:07.702Z,39.89
2022-08-25T15:48:10.859Z,40.36
2022-08-25T15:53:14.603Z,40.72
2022-08-25T15:58:17.686Z,40.65
2022-08-25T16:03:20.703Z,40.82
2022-08-25T16:08:26.740Z,41.35
2022-08-25T16:13:29.814Z,41.28
2022-08-25T16:18:32.929Z,41.57
2022-08-25T16:23:36.408Z,42.01
2022-08-25T16:28:43.949Z,42.07
2022-08-25T16:33:47.437Z,42.22
2022-08-25T16:38:52.429Z,42.23
2022-08-25T16:43:55.479Z,42.44
2022-08-25T16:49:05.037Z,42.60
2022-08-25T16:54:30.497Z,42.92
2022-08-25T16:59:33.525Z,43.27
2022-08-25T17:04:36.845Z,43.50
2022-08-25T17:09:40.963Z,43.87
2022-08-25T17:14:43.973Z,44.28
2022-08-25T17:19:51.837Z,44.46
2022-08-25T17:25:00.719Z,44.74
2022-08-25T17:30:05.246Z,45.02
2022-08-25T17:35:09.887Z,45.12
2022-08-25T17:40:17.329Z,45.39
2022-08-25T17:45:20.391Z,45.61
2022-08-25T17:50:25.165Z,45.95
2022-08-25T17:55:28.244Z,46.08
2022-08-25T18:00:32.950Z,46.25
2022-08-25T18:05:38.575Z,46.34
2022-08-25T18:10:44.824Z,46.30
2022-08-25T18:15:47.793Z,46.39
2022-08-25T18:20:50.804Z,46.39
2022-08-25T18:26:00.846Z,46.54
2022-08-25T18:31:04.574Z,46.63
2022-08-25T18:36:10.005Z,46.83
2022-08-25T18:41:13.545Z,47.01
2022-08-25T18:46:17.323Z,47.23
2022-08-25T18:51:25.925Z,47.35
2022-08-25T18:56:29.973Z,47.42
2022-08-25T19:01:33.387Z,47.36
2022-08-25T19:06:37.465Z,47.37
2022-08-25T19:11:40.683Z,47.51
2022-08-25T19:16:44.619Z,47.51
2022-08-25T19:21:48.273Z,47.50
2022-08-25T19:26:54.578Z,47.70
2022-08-25T19:31:58.686Z,47.76
2022-08-25T19:37:06.330Z,47.86
2022-08-25T19:42:36.800Z,48.28
2022-08-25T19:47:35.083Z,48.27
2022-08-25T19:52:40.180Z,48.41
2022-08-25T19:57:46.281Z,49.01
2022-08-25T20:02:51.387Z,51.61
2022-08-25T20:07:57.749Z,52.94
2022-08-25T20:13:02.069Z,53.78
2022-08-25T20:18:05.253Z,54.67
2022-08-25T20:23:28.261Z,55.29
2022-08-25T20:28:32.478Z,55.69
2022-08-25T20:33:38.854Z,56.27
2022-08-25T20:38:44.942Z,56.81
2022-08-25T20:43:47.959Z,56.88
2022-08-25T20:48:50.981Z,56.86
2022-08-25T20:53:55.210Z,57.71
2022-08-25T20:59:00.002Z,57.74
2022-08-25T21:04:14.300Z,58.65
2022-08-25T21:09:23.077Z,58.89
2022-08-25T21:14:26.638Z,59.25
2022-08-25T21:19:32.011Z,59.40
2022-08-25T21:24:35.354Z,60.12
2022-08-25T21:29:38.907Z,60.12
2022-08-25T21:34:53.350Z,60.22
2022-08-25T21:39:56.727Z,60.24
2022-08-25T21:45:00.069Z,60.53
2022-08-25T21:50:06.376Z,60.66
2022-08-25T21:55:16.177Z,60.95
2022-08-25T22:00:21.216Z,61.38
2022-08-25T22:05:24.632Z,61.62
2022-08-25T22:10:27.684Z,61.52
2022-08-25T22:15:31.270Z,61.60
2022-08-25T22:20:34.321Z,61.97
2022-08-25T22:25:42.787Z,61.97
2022-08-25T22:30:45.860Z,62.11
2022-08-25T22:35:53.155Z,62.24
2022-08-25T22:41:02.954Z,67.00
2022-08-25T22:46:08.347Z,62.81
2022-08-25T22:51:21.468Z,55.28
2022-08-25T22:56:33.224Z,54.66
2022-08-25T23:01:36.813Z,55.92
2022-08-25T23:06:41.100Z,56.71
2022-08-25T23:11:45.585Z,57.63
2022-08-25T23:16:50.147Z,58.42
2022-08-25T23:22:13.307Z,59.45
2022-08-25T23:27:22.102Z,60.08
2022-08-25T23:32:26.998Z,60.64
2022-08-25T23:37:31.317Z,61.08
2022-08-25T23:42:34.280Z,61.66
2022-08-25T23:47:37.667Z,66.62
2022-08-25T23:52:40.645Z,62.77
2022-08-25T23:57:44.032Z,55.60
